Time;durP1;ratioP1;P1;durP2;ratioP2;P2;SDS_P1;SDS_P2;PMS_P1;PMS_P2;Temp;Humidity;BMP_temperature;BMP_pressure;BME280_temperature;BME280_humidity;BME280_pressure;Samples;Min_cycle;Max_cycle;Signal;HPM_P1;HPM_P2
2023/12/11 00:03:13;;;;;;;;;;;;;;;;;;10180392;28;19946;-80
2023/12/11 00:08:14;;;;;;;;;;;;;;;;;;10189997;29;19923;-79
2023/12/11 00:13:14;;;;;;;;;;;;;;;;;;10194722;28;19982;-83
2023/12/11 00:18:16;;;;;;;;;;;;;;;;;;10207883;28;19937;-88
2023/12/11 00:23:16;;;;;;;;;;;;;;;;;;10254162;28;20714;-82
2023/12/11 00:28:17;;;;;;;;;;;;;;;;;;10253711;28;19918;-82
2023/12/11 00:33:18;;;;;;;;;;;;;;;;;;10216523;28;19939;-82
2023/12/11 00:38:19;;;;;;;;;;;;;;;;;;10251095;28;19950;-81
2023/12/11 00:43:19;;;;;;;;;;;;;;;;;;10212947;28;20002;-79
2023/12/11 00:48:20;;;;;;;;;;;;;;;;;;10222861;29;19953;-83
2023/12/11 00:53:21;;;;;;;;;;;;;;;;;;10211745;28;19970;-87
2023/12/11 00:59:00;;;;;;;;;;;;;;;;;;10189012;29;20306;-86
2023/12/11 01:04:06;;;;;;;;;;;;;;;;;;10222126;28;20014;-85
2023/12/11 01:09:08;;;;;;;;;;;;;;;;;;10195059;29;20156;-88
2023/12/11 01:14:08;;;;;;;;;;;;;;;;;;10224636;28;19951;-89
2023/12/11 01:19:09;;;;;;;;;;;;;;;;;;10226070;28;19959;-88
2023/12/11 01:24:09;;;;;;;;;;;;;;;;;;10215163;28;19918;-89
2023/12/11 01:29:12;;;;;;;;;;;;;;;;;;10227222;28;19921;-89
2023/12/11 01:34:13;;;;;;;;;;;;;;;;;;10278397;28;19911;-84
2023/12/11 01:39:13;;;;;;;;;;;;;;;;;;10271317;28;19914;-85
2023/12/11 01:44:15;;;;;;;;;;;;;;;;;;10230284;28;20303;-83
2023/12/11 01:49:18;;;;;;;;;;;;;;;;;;10272068;28;19918;-89
2023/12/11 01:54:19;;;;;;;;;;;;;;;;;;10253200;28;19922;-86
2023/12/11 01:59:25;;;;;;;;;;;;;;;;;;10193547;28;20046;-85
2023/12/11 02:04:26;;;;;;;;;;;;;;;;;;10187500;29;19997;-86
2023/12/11 02:09:28;;;;;;;;;;;;;;;;;;10196240;29;19933;-87
2023/12/11 02:14:31;;;;;;;;;;;;;;;;;;10155978;29;20056;-89
2023/12/11 02:19:31;;;;;;;;;;;;;;;;;;10173637;28;19934;-84
2023/12/11 02:24:34;;;;;;;;;;;;;;;;;;10175443;28;20443;-85
2023/12/11 02:29:36;;;;;;;;;;;;;;;;;;10148959;29;19929;-87
2023/12/11 02:34:36;;;;;;;;;;;;;;;;;;10194485;29;20359;-85
2023/12/11 02:39:36;;;;;;;;;;;;;;;;;;10193187;29;19927;-86
2023/12/11 02:44:36;;;;;;;;;;;;;;;;;;10183232;29;19926;-85
2023/12/11 02:49:37;;;;;;;;;;;;;;;;;;10196079;29;20780;-85
2023/12/11 02:54:39;;;;;;;;;;;;;;;;;;10219303;29;19926;-84
2023/12/11 02:59:39;;;;;;;;;;;;;;;;;;10200019;29;19935;-85
2023/12/11 03:04:40;;;;;;;;;;;;;;;;;;10208962;29;20041;-85
2023/12/11 03:09:40;;;;;;;;;;;;;;;;;;10203164;29;19978;-85
2023/12/11 03:14:42;;;;;;;;;;;;;;;;;;10193597;29;19927;-86
2023/12/11 03:19:42;;;;;;;;;;;;;;;;;;10189322;29;19935;-84
2023/12/11 03:24:42;;;;;;;;;;;;;;;;;;10210509;29;19922;-84
2023/12/11 03:29:43;;;;;;;;;;;;;;;;;;10221074;28;19923;-84
2023/12/11 03:34:43;;;;;;;;;;;;;;;;;;10226741;28;19906;-90
2023/12/11 03:39:44;;;;;;;;;;;;;;;;;;10209357;28;20764;-87
2023/12/11 03:44:49;;;;;;;;;;;;;;;;;;10236184;28;20301;-88
2023/12/11 03:49:50;;;;;;;;;;;;;;;;;;10212332;29;19934;-85
2023/12/11 03:54:54;;;;;;;;;;;;;;;;;;10177168;29;19923;-84
2023/12/11 03:59:55;;;;;;;;;;;;;;;;;;10122944;29;19990;-84
2023/12/11 04:04:56;;;;;;;;;;;;;;;;;;10178155;29;19942;-83
2023/12/11 04:09:57;;;;;;;;;;;;;;;;;;10156691;29;19930;-85
2023/12/11 04:15:01;;;;;;;;;;;;;;;;;;10158491;29;19924;-85
2023/12/11 04:20:13;;;;;;;;;;;;;;;;;;10167863;29;19962;-85
2023/12/11 04:25:15;;;;;;;;;;;;;;;;;;10207736;28;19918;-90
2023/12/11 04:30:16;;;;;;;;;;;;;;;;;;10214916;28;19907;-89
2023/12/11 04:35:18;;;;;;;;;;;;;;;;;;10222416;29;19919;-84
2023/12/11 04:40:19;;;;;;;;;;;;;;;;;;10186008;29;20013;-87
2023/12/11 04:45:24;;;;;;;;;;;;;;;;;;10180179;28;19965;-87
2023/12/11 04:50:28;;;;;;;;;;;;;;;;;;10164829;29;19930;-86
2023/12/11 04:55:29;;;;;;;;;;;;;;;;;;10168206;29;19927;-84
2023/12/11 05:00:33;;;;;;;;;;;;;;;;;;10159390;29;19948;-85
2023/12/11 05:05:34;;;;;;;;;;;;;;;;;;10180088;29;19923;-85
2023/12/11 05:10:35;;;;;;;;;;;;;;;;;;10171546;28;19948;-85
2023/12/11 05:15:37;;;;;;;;;;;;;;;;;;10191189;28;20391;-85
2023/12/11 05:20:38;;;;;;;;;;;;;;;;;;10137294;29;20371;-86
2023/12/11 05:25:39;;;;;;;;;;;;;;;;;;10189052;29;19914;-87
2023/12/11 05:30:40;;;;;;;;;;;;;;;;;;10175168;29;19939;-86
2023/12/11 05:35:40;;;;;;;;;;;;;;;;;;10208767;28;19954;-85
2023/12/11 05:40:41;;;;;;;;;;;;;;;;;;10207016;29;19911;-87
2023/12/11 05:45:51;;;;;;;;;;;;;;;;;;10244384;28;19917;-86
2023/12/11 05:50:53;;;;;;;;;;;;;;;;;;10250969;28;20000;-84
2023/12/11 05:55:59;;;;;;;;;;;;;;;;;;10243862;28;19960;-85
2023/12/11 06:01:21;;;;;;;;;;;;;;;;;;10210194;28;19931;-85
2023/12/11 06:06:21;;;;;;;;;;;;;;;;;;10184450;28;20379;-85
2023/12/11 06:11:23;;;;;;;;;;;;;;;;;;10233218;28;20366;-83
2023/12/11 06:16:24;;;;;;;;;;;;;;;;;;10208576;28;19945;-85
2023/12/11 06:21:25;;;;;;;;;;;;;;;;;;10229757;28;19966;-84
2023/12/11 06:26:25;;;;;;;;;;;;;;;;;;10225630;28;20745;-83
2023/12/11 06:31:26;;;;;;;;;;;;;;;;;;10194060;28;21517;-81
2023/12/11 06:36:28;;;;;;;;;;;;;;;;;;10213396;28;19953;-86
2023/12/11 06:41:28;;;;;;;;;;;;;;;;;;10215141;28;19938;-83
2023/12/11 06:46:29;;;;;;;;;;;;;;;;;;10213696;28;19935;-86
2023/12/11 06:52:02;;;;;;;;;;;;;;;;;;10161394;29;20742;-80
2023/12/11 06:57:02;;;;;;;;;;;;;;;;;;10203948;29;19938;-81
2023/12/11 07:02:02;;;;;;;;;;;;;;;;;;10190380;29;19927;-82
2023/12/11 07:07:03;;;;;;;;;;;;;;;;;;10207269;29;19923;-80
2023/12/11 07:12:04;;;;;;;;;;;;;;;;;;10160384;29;19923;-81
2023/12/11 07:17:06;;;;;;;;;;;;;;;;;;10165393;29;20501;-85
2023/12/11 07:22:07;;;;;;;;;;;;;;;;;;10237315;28;20375;-82
2023/12/11 07:27:07;;;;;;;;;;;;;;;;;;10207273;28;19918;-84
2023/12/11 07:32:08;;;;;;;;;;;;;;;;;;10230288;28;19930;-83
2023/12/11 07:37:09;;;;;;;;;;;;;;;;;;10214799;28;19938;-83
2023/12/11 07:42:09;;;;;;;;;;;;;;;;;;10207177;29;19930;-80
2023/12/11 07:47:11;;;;;;;;;;;;;;;;;;10137634;29;19919;-82
2023/12/11 07:52:12;;;;;;;;;;;;;;;;;;10160626;28;19923;-81
2023/12/11 07:57:12;;;;;;;;;;;;;;;;;;10162833;28;20360;-81
2023/12/11 08:02:19;;;;;;;;;;;;;;;;;;10159155;29;19982;-80
2023/12/11 08:07:23;;;;;;;;;;;;;;;;;;10162498;29;19958;-80
2023/12/11 08:12:25;;;;;;;;;;;;;;;;;;10173782;28;19978;-83
2023/12/11 08:17:25;;;;;;;;;;;;;;;;;;10143408;29;19943;-83
2023/12/11 08:22:27;;;;;;;;;;;;;;;;;;10179895;29;19974;-86
2023/12/11 08:27:28;;;;;;;;;;;;;;;;;;10182532;29;20380;-85
2023/12/11 08:32:28;;;;;;;;;;;;;;;;;;10158519;29;19991;-84
2023/12/11 08:37:33;;;;;;;;;;;;;;;;;;10172639;29;19930;-80
2023/12/11 08:42:37;;;;;;;;;;;;;;;;;;10175811;29;19994;-81
2023/12/11 08:47:41;;;;;;;;;;;;;;;;;;10190724;29;19919;-81
2023/12/11 08:52:42;;;;;;;;;;;;;;;;;;10174134;29;19977;-82
2023/12/11 08:57:44;;;;;;;;;;;;;;;;;;10186129;29;20021;-83
2023/12/11 09:02:45;;;;;;;;;;;;;;;;;;10159286;29;19950;-84
2023/12/11 09:07:46;;;;;;;;;;;;;;;;;;10175908;29;20411;-80
2023/12/11 09:12:53;;;;;;;;;;;;;;;;;;10168347;28;19930;-83
2023/12/11 09:18:00;;;;;;;;;;;;;;;;;;10142081;29;20478;-82
2023/12/11 09:23:25;;;;;;;;;;;;;;;;;;10179882;29;19923;-83
2023/12/11 09:28:25;;;;;;;;;;;;;;;;;;10161652;29;19927;-81
2023/12/11 09:33:26;;;;;;;;;;;;;;;;;;10158480;29;19929;-81
2023/12/11 09:38:28;;;;;;;;;;;;;;;;;;10158402;29;19935;-84
2023/12/11 09:43:29;;;;;;;;;;;;;;;;;;10164791;28;20813;-84
2023/12/11 09:48:32;;;;;;;;;;;;;;;;;;10220585;28;20293;-82
2023/12/11 09:53:43;;;;;;;;;;;;;;;;;;;;;
2023/12/11 09:58:44;;;;;;;;;;;;;;;;;;10224252;28;20478;-82
2023/12/11 10:09:18;;;;;;;;;;;;;;;;;;10161797;29;19923;-81
2023/12/11 10:14:24;;;;;;;;;;;;;;;;;;10165515;29;19966;-84
2023/12/11 10:19:28;;;;;;;;;;;;;;;;;;10126540;29;19934;-83
2023/12/11 10:24:28;;;;;;;;;;;;;;;;;;10177699;28;20052;-85
2023/12/11 10:29:32;;;;;;;;;;;;;;;;;;10301773;28;19917;-84
2023/12/11 10:35:08;;;;;;;;;;;;;;;;;;10294302;28;19970;-82
2023/12/11 10:40:08;;;;;;;;;;;;;;;;;;10264247;28;19914;-81
2023/12/11 10:45:09;;;;;;;;;;;;;;;;;;10280540;28;19938;-84
2023/12/11 10:50:10;;;;;;;;;;;;;;;;;;10299570;28;20015;-81
2023/12/11 10:55:13;;;;;;;;;;;;;;;;;;10268926;28;19922;-81
2023/12/11 11:00:13;;;;;;;;;;;;;;;;;;10261049;28;20271;-82
2023/12/11 11:05:15;;;;;;;;;;;;;;;;;;10256580;28;19929;-81
2023/12/11 11:10:15;;;;;;;;;;;;;;;;;;10225226;28;20502;-82
2023/12/11 11:15:20;;;;;;;;;;;;;;;;;;10145247;28;19927;-81
2023/12/11 11:20:28;;;;;;;;;;;;;;;;;;10179326;29;20410;-82
2023/12/11 11:25:29;;;;;;;;;;;;;;;;;;10169331;28;19995;-81
2023/12/11 11:30:30;;;;;;;;;;;;;;;;;;10198831;29;19934;-81
2023/12/11 11:35:31;;;;;;;;;;;;;;;;;;10199041;28;19927;-81
2023/12/11 11:40:31;;;;;;;;;;;;;;;;;;10188104;28;19934;-83
2023/12/11 11:45:32;;;;;;;;;;;;;;;;;;10180640;28;19958;-81
2023/12/11 11:50:32;;;;;;;;;;;;;;;;;;10186567;29;19928;-79
2023/12/11 11:55:34;;;;;;;;;;;;;;;;;;10176642;29;19922;-78
2023/12/11 12:00:35;;;;;;;;;;;;;;;;;;10192457;29;19930;-80
2023/12/11 12:05:36;;;;;;;;;;;;;;;;;;10202928;28;20638;-79
2023/12/11 12:10:43;;;;;;;;;;;;;;;;;;10164708;28;19945;-80
2023/12/11 12:15:49;;;;;;;;;;;;;;;;;;10227414;29;20026;-82
2023/12/11 12:20:49;;;;;;;;;;;;;;;;;;10161892;28;19934;-80
2023/12/11 12:26:03;;;;;;;;;;;;;;;;;;;;;
2023/12/11 12:31:03;;;;;;;;;;;;;;;;;;10195082;28;19927;-81
2023/12/11 12:36:07;;;;;;;;;;;;;;;;;;10192287;28;20218;-82
2023/12/11 12:41:12;;;;;;;;;;;;;;;;;;10201285;28;19935;-80
2023/12/11 12:46:14;;;;;;;;;;;;;;;;;;10200781;28;19929;-80
2023/12/11 12:51:18;;;;;;;;;;;;;;;;;;10182546;28;19958;-82
2023/12/11 12:56:27;;;;;;;;;;;;;;;;;;10202135;28;19966;-82
2023/12/11 13:01:27;;;;;;;;;;;;;;;;;;10213146;28;19934;-88
2023/12/11 13:06:28;;;;;;;;;;;;;;;;;;10224093;28;19934;-84
2023/12/11 13:11:28;;;;;;;;;;;;;;;;;;10201892;28;19927;-88
2023/12/11 13:16:29;;;;;;;;;;;;;;;;;;10156532;28;19997;-83
2023/12/11 13:21:32;;;;;;;;;;;;;;;;;;10191937;29;19990;-84
2023/12/11 13:26:32;;;;;;;;;;;;;;;;;;10220412;28;19985;-84
2023/12/11 13:31:37;;;;;;;;;;;;;;;;;;10196821;28;20013;-84
2023/12/11 13:36:44;;;;;;;;;;;;;;;;;;10226450;28;20327;-83
2023/12/11 13:42:02;;;;;;;;;;;;;;;;;;10238591;28;19934;-86
2023/12/11 13:47:06;;;;;;;;;;;;;;;;;;10254722;28;19918;-85
2023/12/11 13:52:12;;;;;;;;;;;;;;;;;;10267768;28;19906;-82
2023/12/11 13:57:12;;;;;;;;;;;;;;;;;;10267989;28;19923;-84
2023/12/11 14:02:17;;;;;;;;;;;;;;;;;;10233709;28;19966;-84
2023/12/11 14:07:18;;;;;;;;;;;;;;;;;;10244373;28;19922;-83
2023/12/11 14:12:22;;;;;;;;;;;;;;;;;;10242345;28;20410;-86
2023/12/11 14:17:26;;;;;;;;;;;;;;;;;;10268058;28;19930;-81
2023/12/11 14:22:26;;;;;;;;;;;;;;;;;;10241389;28;19935;-84
2023/12/11 14:27:29;;;;;;;;;;;;;;;;;;10211856;28;19929;-87
2023/12/11 14:32:42;;;;;;;;;;;;;;;;;;;;;
2023/12/11 14:37:42;;;;;;;;;;;;;;;;;;10241490;28;19930;-87
2023/12/11 14:42:43;;;;;;;;;;;;;;;;;;10262300;28;19907;-88
2023/12/11 14:47:51;;;;;;;;;;;;;;;;;;10277333;28;19958;-86
2023/12/11 14:52:53;;;;;;;;;;;;;;;;;;10270589;28;19933;-83
2023/12/11 14:57:53;;;;;;;;;;;;;;;;;;10286522;28;19914;-87
2023/12/11 15:02:54;;;;;;;;;;;;;;;;;;10249722;28;19923;-83
2023/12/11 15:07:54;;;;;;;;;;;;;;;;;;10263124;28;19967;-85
2023/12/11 15:12:55;;;;;;;;;;;;;;;;;;10273244;28;19929;-83
2023/12/11 15:18:00;;;;;;;;;;;;;;;;;;10220283;28;20030;-86
2023/12/11 15:23:16;;;;;;;;;;;;;;;;;;10284681;28;19907;-85
2023/12/11 15:28:21;;;;;;;;;;;;;;;;;;10267793;28;19906;-84
2023/12/11 15:33:21;;;;;;;;;;;;;;;;;;10299724;28;19911;-85
2023/12/11 15:38:22;;;;;;;;;;;;;;;;;;10298939;28;19999;-85
2023/12/11 15:43:22;;;;;;;;;;;;;;;;;;10281154;28;19930;-84
2023/12/11 15:48:29;;;;;;;;;;;;;;;;;;10266944;28;19923;-84
2023/12/11 15:53:35;;;;;;;;;;;;;;;;;;10226673;28;19922;-82
2023/12/11 15:58:37;;;;;;;;;;;;;;;;;;10232188;28;21862;-83
2023/12/11 16:03:41;;;;;;;;;;;;;;;;;;10217113;28;19926;-85
2023/12/11 16:08:42;;;;;;;;;;;;;;;;;;10202809;28;20026;-84
2023/12/11 16:13:45;;;;;;;;;;;;;;;;;;10213580;28;20029;-86
2023/12/11 16:18:53;;;;;;;;;;;;;;;;;;10260568;28;19926;-84
2023/12/11 16:23:55;;;;;;;;;;;;;;;;;;10251752;28;19977;-84
2023/12/11 16:28:56;;;;;;;;;;;;;;;;;;10219176;28;19972;-85
2023/12/11 16:33:59;;;;;;;;;;;;;;;;;;10252211;28;19918;-84
2023/12/11 16:38:59;;;;;;;;;;;;;;;;;;10236941;28;19938;-82
2023/12/11 16:43:59;;;;;;;;;;;;;;;;;;10229384;28;19969;-82
2023/12/11 16:49:02;;;;;;;;;;;;;;;;;;10231581;28;19950;-84
2023/12/11 16:54:04;;;;;;;;;;;;;;;;;;10248639;28;19923;-83
2023/12/11 16:59:04;;;;;;;;;;;;;;;;;;10245333;28;19997;-83
2023/12/11 17:04:05;;;;;;;;;;;;;;;;;;10279133;28;19926;-84
2023/12/11 17:09:05;;;;;;;;;;;;;;;;;;10243306;28;19926;-83
2023/12/11 17:14:06;;;;;;;;;;;;;;;;;;10232491;28;19922;-82
2023/12/11 17:19:10;;;;;;;;;;;;;;;;;;10212919;28;20078;-83
2023/12/11 17:24:12;;;;;;;;;;;;;;;;;;10211319;28;19993;-85
2023/12/11 17:29:12;;;;;;;;;;;;;;;;;;10238584;28;19922;-83
2023/12/11 17:34:17;;;;;;;;;;;;;;;;;;10231248;28;20269;-84
2023/12/11 17:39:18;;;;;;;;;;;;;;;;;;10254645;28;19930;-85
2023/12/11 17:44:18;;;;;;;;;;;;;;;;;;10207121;28;19963;-82
2023/12/11 17:49:19;;;;;;;;;;;;;;;;;;10243155;28;19950;-87
2023/12/11 17:54:21;;;;;;;;;;;;;;;;;;10223825;28;19937;-84
2023/12/11 17:59:21;;;;;;;;;;;;;;;;;;10207763;28;20394;-82
2023/12/11 18:04:22;;;;;;;;;;;;;;;;;;10226481;28;20266;-84
2023/12/11 18:09:27;;;;;;;;;;;;;;;;;;10199379;28;19930;-83
2023/12/11 18:14:27;;;;;;;;;;;;;;;;;;10204549;28;20556;-83
2023/12/11 18:19:36;;;;;;;;;;;;;;;;;;10201100;28;20732;-81
2023/12/11 18:24:38;;;;;;;;;;;;;;;;;;10210408;28;19927;-80
2023/12/11 18:29:44;;;;;;;;;;;;;;;;;;10193285;28;19926;-85
2023/12/11 18:34:45;;;;;;;;;;;;;;;;;;10190453;28;19929;-83
2023/12/11 18:39:45;;;;;;;;;;;;;;;;;;10211207;28;19934;-82
2023/12/11 18:44:47;;;;;;;;;;;;;;;;;;10231621;28;19926;-80
2023/12/11 18:49:47;;;;;;;;;;;;;;;;;;10227271;28;19934;-84
2023/12/11 18:54:48;;;;;;;;;;;;;;;;;;10242473;28;20654;-80
2023/12/11 18:59:49;;;;;;;;;;;;;;;;;;10214299;28;19934;-81
2023/12/11 19:04:54;;;;;;;;;;;;;;;;;;10238889;28;19922;-80
2023/12/11 19:09:54;;;;;;;;;;;;;;;;;;10206406;28;20630;-86
2023/12/11 19:14:56;;;;;;;;;;;;;;;;;;10265592;28;19928;-84
2023/12/11 19:19:58;;;;;;;;;;;;;;;;;;10245558;28;20042;-83
2023/12/11 19:24:59;;;;;;;;;;;;;;;;;;10242709;28;19922;-82
2023/12/11 19:30:01;;;;;;;;;;;;;;;;;;10275151;28;19948;-81
2023/12/11 19:35:34;;;;;;;;;;;;;;;;;;10285567;28;19929;-85
2023/12/11 19:41:10;;;;;;;;;;;;;;;;;;10270340;28;19941;-85
2023/12/11 19:46:14;;;;;;;;;;;;;;;;;;10265135;28;20015;-83
2023/12/11 19:51:20;;;;;;;;;;;;;;;;;;10253027;28;19927;-82
2023/12/11 19:56:21;;;;;;;;;;;;;;;;;;10236330;28;19933;-85
2023/12/11 20:01:23;;;;;;;;;;;;;;;;;;10198039;28;19931;-83
2023/12/11 20:06:28;;;;;;;;;;;;;;;;;;10223527;28;19922;-82
2023/12/11 20:11:28;;;;;;;;;;;;;;;;;;10215569;28;20001;-84
2023/12/11 20:16:31;;;;;;;;;;;;;;;;;;10267723;28;19907;-84
2023/12/11 20:21:38;;;;;;;;;;;;;;;;;;10278524;28;19930;-83
2023/12/11 20:26:39;;;;;;;;;;;;;;;;;;10279128;28;19914;-83
2023/12/11 20:31:39;;;;;;;;;;;;;;;;;;10286479;28;19981;-83
2023/12/11 20:36:42;;;;;;;;;;;;;;;;;;10282638;28;19914;-82
2023/12/11 20:41:42;;;;;;;;;;;;;;;;;;10273345;28;19934;-83
2023/12/11 20:46:43;;;;;;;;;;;;;;;;;;10233436;28;20201;-84
2023/12/11 20:51:45;;;;;;;;;;;;;;;;;;10273036;28;19914;-83
2023/12/11 20:56:49;;;;;;;;;;;;;;;;;;10291991;28;19930;-81
2023/12/11 21:01:49;;;;;;;;;;;;;;;;;;10275705;28;20050;-87
2023/12/11 21:12:22;;;;;;;;;;;;;;;;;;10591675;23;19924;-86
2023/12/11 21:17:40;;;;;;;;;;;;;;;;;;10765943;23;19965;-87
2023/12/11 21:22:40;;;;;;;;;;;;;;;;;;10781693;23;19934;-87
2023/12/11 21:27:45;;;;;;;;;;;;;;;;;;10345866;28;19949;-87
2023/12/11 21:33:04;;;;;;;;;;;;;;;;;;10885591;23;19930;-88
2023/12/11 21:38:09;;;;;;;;;;;;;;;;;;10252981;28;19930;-90
2023/12/11 21:43:15;;;;;;;;;;;;;;;;;;10464584;23;20108;-89
2023/12/11 21:48:37;;;;;;;;;;;;;;;;;;10904574;23;19993;-84
2023/12/11 21:53:42;;;;;;;;;;;;;;;;;;10196715;28;20009;-87
2023/12/11 21:58:47;;;;;;;;;;;;;;;;;;10552176;23;19922;-89
2023/12/11 22:15:24;;;;;;;;;;;;;;;;;;10808266;23;19914;-87
2023/12/11 22:20:37;;;;;;;;;;;;;;;;;;10280850;28;19926;-87
2023/12/11 22:25:39;;;;;;;;;;;;;;;;;;10269780;28;19953;-89
2023/12/11 22:36:28;;;;;;;;;;;;;;;;;;10247850;28;19941;-87
2023/12/11 22:46:55;;;;;;;;;;;;;;;;;;10899172;23;20139;-88
2023/12/11 22:52:01;;;;;;;;;;;;;;;;;;10777724;23;19932;-90
2023/12/11 23:07:58;;;;;;;;;;;;;;;;;;9954623;23;19929;-89
2023/12/11 23:13:00;;;;;;;;;;;;;;;;;;10345737;28;21096;-89
2023/12/11 23:18:09;;;;;;;;;;;;;;;;;;10311333;28;19936;-88
2023/12/11 23:23:18;;;;;;;;;;;;;;;;;;10333197;28;19928;-89
2023/12/11 23:28:18;;;;;;;;;;;;;;;;;;10311874;28;19940;-90
2023/12/11 23:38:54;;;;;;;;;;;;;;;;;;10168256;29;20002;-89
2023/12/11 23:43:59;;;;;;;;;;;;;;;;;;10202607;28;19931;-84
2023/12/11 23:49:00;;;;;;;;;;;;;;;;;;10161002;29;19926;-85
2023/12/11 23:54:33;;;;;;;;;;;;;;;;;;10177239;28;19907;-86
2023/12/11 23:59:42;;;;;;;;;;;;;;;;;;10222925;28;19934;-85
